Time;durP1;ratioP1;P1;durP2;ratioP2;P2;SDS_P1;SDS_P2;PMS_P1;PMS_P2;Temp;Humidity;BMP_temperature;BMP_pressure;BME280_temperature;BME280_humidity;BME280_pressure;Samples;Min_cycle;Max_cycle;Signal;HPM_P1;HPM_P2
2022/05/28 00:01:23;;;;;;;5.93;1.25;;;10.60;99.90;;;;;;5031506;28;20072;-56
2022/05/28 00:03:51;;;;;;;2.78;1.23;;;10.50;99.90;;;;;;5031206;28;20033;-57
2022/05/28 00:06:19;;;;;;;3.70;0.93;;;10.50;99.90;;;;;;5032246;28;20034;-55
2022/05/28 00:08:45;;;;;;;9.20;1.55;;;10.40;99.90;;;;;;5031110;28;20025;-54
2022/05/28 00:11:21;;;;;;;7.07;1.05;;;10.40;99.90;;;;;;5031244;28;20033;-52
2022/05/28 00:13:48;;;;;;;4.20;1.02;;;10.40;99.90;;;;;;5032428;28;20022;-54
2022/05/28 00:16:14;;;;;;;5.47;1.13;;;10.40;99.90;;;;;;5032496;28;20026;-54
2022/05/28 00:18:40;;;;;;;4.72;1.00;;;10.50;99.90;;;;;;5032421;28;20517;-57
2022/05/28 00:21:08;;;;;;;7.75;1.40;;;10.40;99.90;;;;;;5032448;28;20101;-56
2022/05/28 00:23:35;;;;;;;4.15;0.85;;;10.40;99.90;;;;;;5031365;28;20072;-54
2022/05/28 00:26:02;;;;;;;4.90;1.60;;;10.40;99.90;;;;;;5032652;28;20467;-57
2022/05/28 00:28:28;;;;;;;9.57;1.25;;;10.40;99.90;;;;;;5032286;28;20499;-54
2022/05/28 00:30:55;;;;;;;9.90;1.30;;;10.40;99.90;;;;;;5033126;28;20053;-51
2022/05/28 00:33:21;;;;;;;4.57;1.58;;;10.40;99.90;;;;;;5030978;28;20025;-56
2022/05/28 00:35:46;;;;;;;6.03;1.00;;;10.40;99.90;;;;;;5030879;28;20061;-57
2022/05/28 00:38:12;;;;;;;8.45;1.00;;;10.40;99.90;;;;;;5032490;28;20076;-53
2022/05/28 00:40:37;;;;;;;3.53;1.08;;;10.40;99.90;;;;;;5031692;28;20089;-55
2022/05/28 00:43:05;;;;;;;7.63;1.35;;;10.40;99.90;;;;;;5035671;28;20029;-56
2022/05/28 00:45:33;;;;;;;3.13;0.80;;;10.40;99.90;;;;;;5035650;28;20033;-58
2022/05/28 00:48:02;;;;;;;3.13;1.25;;;10.30;99.90;;;;;;5034464;28;20021;-54
2022/05/28 00:50:29;;;;;;;4.65;0.95;;;10.40;99.90;;;;;;5035860;28;20032;-57
2022/05/28 00:52:54;;;;;;;8.93;1.65;;;10.40;99.90;;;;;;5034630;28;20040;-55
2022/05/28 00:55:21;;;;;;;9.98;1.63;;;10.30;99.90;;;;;;5034737;28;20017;-57
2022/05/28 00:57:47;;;;;;;17.25;1.50;;;10.30;99.90;;;;;;5035902;28;20081;-57
2022/05/28 01:00:20;;;;;;;8.10;1.13;;;10.30;99.90;;;;;;5034320;28;20159;-53
2022/05/28 01:02:57;;;;;;;7.45;1.52;;;10.40;99.90;;;;;;5035588;28;20021;-57
2022/05/28 01:05:35;;;;;;;5.05;1.10;;;10.40;99.90;;;;;;5035598;28;20104;-56
2022/05/28 01:08:14;;;;;;;6.05;1.52;;;10.30;99.90;;;;;;5034467;28;20032;-54
2022/05/28 01:11:09;;;;;;;6.70;1.38;;;10.40;99.90;;;;;;5035760;28;20025;-56
2022/05/28 01:14:14;;;;;;;6.88;1.30;;;10.30;99.90;;;;;;5034097;28;20117;-55
2022/05/28 01:17:00;;;;;;;8.85;2.10;;;10.30;99.90;;;;;;4958832;28;20027;-56
2022/05/28 01:19:43;;;;;;;10.18;3.58;;;10.30;99.90;;;;;;5030999;28;20117;-57
2022/05/28 01:22:22;;;;;;;5.25;1.50;;;10.30;99.90;;;;;;5033906;28;20028;-56
2022/05/28 01:25:16;;;;;;;8.30;1.15;;;10.20;99.90;;;;;;5035042;28;20104;-57
2022/05/28 01:27:46;;;;;;;4.88;1.00;;;10.30;99.90;;;;;;5022160;28;20073;-57
2022/05/28 01:30:14;;;;;;;3.85;1.20;;;10.30;99.90;;;;;;5033667;28;20507;-56
2022/05/28 01:32:44;;;;;;;4.00;1.20;;;10.20;99.90;;;;;;5034937;28;20058;-57
2022/05/28 01:35:13;;;;;;;7.47;1.08;;;10.20;99.90;;;;;;5034025;28;20060;-57
2022/05/28 01:37:39;;;;;;;7.88;1.48;;;10.20;99.90;;;;;;5033769;28;20384;-57
2022/05/28 01:40:08;;;;;;;7.93;2.78;;;10.10;99.90;;;;;;5035112;28;20160;-55
2022/05/28 01:42:37;;;;;;;8.05;2.97;;;10.20;99.90;;;;;;5034845;28;20376;-57
2022/05/28 01:45:05;;;;;;;7.88;1.45;;;10.10;99.90;;;;;;5034881;28;20026;-57
2022/05/28 01:47:32;;;;;;;10.60;2.40;;;10.10;99.90;;;;;;5033454;28;20025;-57
2022/05/28 01:50:01;;;;;;;8.73;1.75;;;10.00;99.90;;;;;;5033441;28;20026;-57
2022/05/28 01:52:28;;;;;;;6.10;1.10;;;10.00;99.90;;;;;;5034310;28;20067;-57
2022/05/28 01:54:56;;;;;;;4.82;1.30;;;10.00;99.90;;;;;;5033115;28;20022;-55
2022/05/28 01:57:22;;;;;;;9.18;2.00;;;10.00;99.90;;;;;;5034291;28;20021;-55
2022/05/28 01:59:48;;;;;;;2.40;1.15;;;10.00;99.90;;;;;;5033468;28;20534;-54
2022/05/28 02:02:15;;;;;;;3.03;1.02;;;9.90;99.90;;;;;;5033613;28;20017;-56
2022/05/28 02:04:43;;;;;;;11.65;1.95;;;9.90;99.90;;;;;;5034145;28;20033;-56
2022/05/28 02:07:09;;;;;;;5.20;1.10;;;10.00;99.90;;;;;;5033952;28;20064;-57
2022/05/28 02:09:40;;;;;;;7.72;2.05;;;9.90;99.90;;;;;;5034570;28;20032;-56
2022/05/28 02:12:27;;;;;;;14.93;4.27;;;9.90;99.90;;;;;;5033084;28;20053;-56
2022/05/28 02:15:24;;;;;;;10.25;1.30;;;9.90;99.90;;;;;;5032938;28;20032;-54
2022/05/28 02:17:52;;;;;;;9.68;1.10;;;9.90;99.90;;;;;;5034385;28;20025;-51
2022/05/28 02:20:20;;;;;;;6.80;1.42;;;9.90;99.90;;;;;;5033253;28;20476;-53
2022/05/28 02:22:55;;;;;;;11.98;1.50;;;9.80;99.90;;;;;;5034075;28;20029;-52
2022/05/28 02:25:27;;;;;;;7.05;0.90;;;9.80;99.90;;;;;;5032944;28;20087;-55
2022/05/28 02:27:55;;;;;;;8.60;1.30;;;9.80;99.90;;;;;;5032826;28;20040;-57
2022/05/28 02:30:20;;;;;;;7.63;1.05;;;9.80;99.90;;;;;;5034062;28;20034;-53
2022/05/28 02:32:46;;;;;;;6.70;1.52;;;9.80;99.90;;;;;;5032521;28;20112;-57
2022/05/28 02:35:13;;;;;;;12.10;1.27;;;9.80;99.90;;;;;;5032664;28;20091;-56
2022/05/28 02:37:39;;;;;;;6.30;1.85;;;9.80;99.90;;;;;;5033844;28;20021;-55
2022/05/28 02:40:06;;;;;;;9.82;1.63;;;9.80;99.90;;;;;;5032462;28;20072;-54
2022/05/28 02:42:32;;;;;;;5.53;1.80;;;9.80;99.90;;;;;;5032822;28;20030;-57
2022/05/28 02:44:59;;;;;;;8.48;1.58;;;9.70;99.90;;;;;;5032385;28;20369;-55
2022/05/28 02:47:24;;;;;;;11.68;1.42;;;9.70;99.90;;;;;;5033776;28;20163;-54
2022/05/28 02:49:53;;;;;;;7.35;0.90;;;9.60;99.90;;;;;;5032299;28;20484;-57
2022/05/28 02:52:19;;;;;;;3.47;1.00;;;9.60;99.90;;;;;;5032523;28;20029;-53
2022/05/28 02:54:44;;;;;;;9.57;1.98;;;9.50;99.90;;;;;;5033582;28;20029;-55
2022/05/28 02:57:10;;;;;;;8.73;2.35;;;9.50;99.90;;;;;;5032203;28;20021;-51
2022/05/28 02:59:36;;;;;;;11.68;1.30;;;9.50;99.90;;;;;;5032452;28;20028;-57
2022/05/28 03:02:02;;;;;;;5.05;1.88;;;9.50;99.90;;;;;;5032401;28;20090;-52
2022/05/28 03:04:28;;;;;;;11.13;1.50;;;9.50;99.90;;;;;;5031764;28;20093;-56
2022/05/28 03:06:54;;;;;;;7.97;1.50;;;9.40;99.90;;;;;;5033657;28;20072;-57
2022/05/28 03:09:20;;;;;;;5.57;1.15;;;9.40;99.90;;;;;;5031965;28;20017;-57
2022/05/28 03:11:46;;;;;;;4.97;1.35;;;9.40;99.90;;;;;;5031763;28;20062;-56
2022/05/28 03:14:11;;;;;;;7.88;1.13;;;9.40;99.90;;;;;;5031844;28;20027;-58
2022/05/28 03:16:37;;;;;;;2.55;0.85;;;9.40;99.90;;;;;;5033429;28;20021;-57
2022/05/28 03:19:03;;;;;;;10.60;1.63;;;9.50;99.90;;;;;;5032290;28;20025;-57
2022/05/28 03:21:28;;;;;;;5.55;0.82;;;9.50;99.90;;;;;;5031641;28;20052;-56
2022/05/28 03:23:54;;;;;;;11.00;1.70;;;9.50;99.90;;;;;;5031848;28;20029;-58
2022/05/28 03:26:29;;;;;;;3.78;1.40;;;9.40;99.90;;;;;;5032891;28;20071;-57
2022/05/28 03:28:56;;;;;;;4.53;1.80;;;9.30;99.90;;;;;;5032996;28;20033;-55
2022/05/28 03:31:23;;;;;;;6.07;1.27;;;9.30;99.90;;;;;;5032859;28;20017;-56
2022/05/28 03:33:50;;;;;;;4.80;1.08;;;9.30;99.90;;;;;;5033091;28;20029;-57
2022/05/28 03:36:16;;;;;;;4.72;1.40;;;9.30;99.90;;;;;;5033152;28;20104;-57
2022/05/28 03:38:42;;;;;;;7.80;1.20;;;9.30;99.90;;;;;;5032860;28;20025;-55
2022/05/28 03:41:08;;;;;;;5.32;1.20;;;9.30;99.90;;;;;;5032859;28;20541;-57
2022/05/28 03:43:34;;;;;;;12.45;1.58;;;9.40;99.90;;;;;;5033240;28;20036;-57
2022/05/28 03:45:59;;;;;;;8.02;2.15;;;9.50;99.90;;;;;;5031388;28;20025;-57
2022/05/28 03:48:26;;;;;;;5.90;1.40;;;9.50;99.90;;;;;;5031525;28;20116;-57
2022/05/28 03:50:51;;;;;;;9.82;2.00;;;9.50;99.90;;;;;;5032718;28;20147;-55
2022/05/28 03:53:18;;;;;;;5.20;1.30;;;9.60;99.90;;;;;;5031417;28;20471;-56
2022/05/28 03:55:44;;;;;;;6.40;1.67;;;9.60;99.90;;;;;;5031743;28;20032;-57
2022/05/28 03:58:10;;;;;;;14.88;1.70;;;9.70;99.90;;;;;;5032672;28;20496;-57
2022/05/28 04:00:36;;;;;;;5.40;1.60;;;9.80;99.90;;;;;;5031462;28;20029;-54
2022/05/28 04:03:02;;;;;;;6.43;1.35;;;9.90;99.90;;;;;;5032525;28;20029;-53
2022/05/28 04:05:28;;;;;;;5.43;1.10;;;10.10;99.90;;;;;;5032671;28;20072;-55
2022/05/28 04:07:53;;;;;;;5.40;1.10;;;10.20;99.90;;;;;;5032596;28;20049;-54
2022/05/28 04:10:19;;;;;;;11.05;1.30;;;10.50;99.90;;;;;;5032569;28;20021;-58
2022/05/28 04:12:45;;;;;;;5.97;1.00;;;10.80;99.90;;;;;;5032522;28;20025;-53
2022/05/28 04:15:12;;;;;;;9.43;1.17;;;11.00;99.90;;;;;;5031187;28;20022;-57
2022/05/28 04:17:39;;;;;;;11.93;1.33;;;11.30;99.90;;;;;;5035851;28;20018;-57
2022/05/28 04:20:06;;;;;;;5.05;1.50;;;11.50;99.90;;;;;;5035276;28;20021;-55
2022/05/28 04:22:32;;;;;;;4.10;1.10;;;11.80;99.90;;;;;;5036237;28;20052;-57
2022/05/28 04:24:58;;;;;;;5.10;1.00;;;11.90;99.90;;;;;;5035038;28;20061;-57
2022/05/28 04:27:24;;;;;;;13.05;2.70;;;12.10;99.90;;;;;;5036242;28;20028;-57
2022/05/28 04:29:49;;;;;;;11.82;1.17;;;12.20;99.90;;;;;;5036228;28;20033;-57
2022/05/28 04:32:15;;;;;;;6.95;1.80;;;12.40;99.90;;;;;;5036866;28;20139;-58
2022/05/28 04:34:41;;;;;;;9.18;1.27;;;12.60;99.90;;;;;;5035713;28;20025;-59
2022/05/28 04:37:06;;;;;;;3.13;1.10;;;12.80;99.90;;;;;;5036640;28;20029;-58
2022/05/28 04:39:32;;;;;;;4.55;1.10;;;13.00;99.90;;;;;;5035358;28;20031;-58
2022/05/28 04:41:58;;;;;;;8.52;1.98;;;13.10;99.90;;;;;;5035740;28;20022;-58
2022/05/28 04:44:23;;;;;;;5.57;1.35;;;13.40;99.90;;;;;;5036710;28;20090;-54
2022/05/28 04:46:49;;;;;;;4.85;1.13;;;13.60;99.90;;;;;;5035182;28;20036;-58
2022/05/28 04:49:14;;;;;;;11.68;1.85;;;13.90;99.90;;;;;;5036513;28;20391;-58
2022/05/28 04:51:40;;;;;;;5.03;1.58;;;14.20;99.90;;;;;;5035394;28;20022;-58
2022/05/28 04:54:06;;;;;;;7.45;1.33;;;14.40;99.90;;;;;;5036750;28;20028;-58
2022/05/28 04:56:32;;;;;;;8.90;1.40;;;14.80;99.90;;;;;;5035039;28;20026;-58
2022/05/28 04:58:58;;;;;;;5.03;1.20;;;15.10;99.90;;;;;;5035891;28;20033;-58
2022/05/28 05:01:24;;;;;;;10.40;1.90;;;15.40;99.90;;;;;;5035012;28;20022;-58
2022/05/28 05:03:50;;;;;;;6.40;1.15;;;15.60;99.90;;;;;;5035616;28;20029;-58
2022/05/28 05:06:16;;;;;;;7.05;1.40;;;15.80;99.90;;;;;;5034977;28;20045;-57
2022/05/28 05:08:42;;;;;;;5.60;1.20;;;16.00;99.90;;;;;;5036242;28;20026;-58
2022/05/28 05:11:08;;;;;;;4.70;1.08;;;16.20;99.90;;;;;;5035962;28;20017;-58
2022/05/28 05:13:33;;;;;;;4.25;1.65;;;16.60;99.90;;;;;;5035875;28;20032;-58
2022/05/28 05:15:59;;;;;;;8.65;1.48;;;16.70;99.90;;;;;;5034565;28;20116;-58
2022/05/28 05:18:25;;;;;;;5.05;1.05;;;17.00;99.90;;;;;;5034743;28;20068;-58
2022/05/28 05:20:50;;;;;;;6.18;1.13;;;17.30;99.90;;;;;;5034989;28;20116;-58
2022/05/28 05:23:17;;;;;;;5.75;1.40;;;17.70;99.90;;;;;;5034882;28;20026;-57
2022/05/28 05:25:43;;;;;;;11.18;1.27;;;17.90;99.90;;;;;;5034483;28;20056;-58
2022/05/28 05:28:09;;;;;;;8.30;1.23;;;18.20;99.90;;;;;;5034763;28;20022;-58
2022/05/28 05:30:35;;;;;;;6.55;1.15;;;18.50;99.90;;;;;;5034660;28;20044;-56
2022/05/28 05:33:00;;;;;;;4.85;1.67;;;18.80;99.90;;;;;;5034344;28;20041;-57
2022/05/28 05:35:26;;;;;;;9.32;1.60;;;19.10;99.90;;;;;;5035535;28;20022;-54
2022/05/28 05:37:51;;;;;;;9.85;1.48;;;19.30;99.90;;;;;;5035540;28;20029;-57
2022/05/28 05:40:17;;;;;;;3.63;1.70;;;19.50;99.90;;;;;;5035475;28;20026;-54
2022/05/28 05:42:43;;;;;;;5.47;1.60;;;19.80;99.90;;;;;;5035634;28;20052;-58
2022/05/28 05:45:09;;;;;;;7.00;1.45;;;20.20;99.90;;;;;;5035314;28;20070;-60
2022/05/28 05:47:35;;;;;;;8.88;1.52;;;20.70;99.90;;;;;;5034156;28;20048;-55
2022/05/28 05:50:01;;;;;;;8.27;1.80;;;21.20;99.90;;;;;;5034102;28;20252;-55
2022/05/28 05:52:26;;;;;;;10.75;1.83;;;21.60;99.90;;;;;;5034053;28;20029;-55
2022/05/28 05:54:52;;;;;;;3.95;1.52;;;22.10;99.90;;;;;;5035316;28;20510;-59
2022/05/28 05:57:19;;;;;;;5.88;1.42;;;22.40;99.20;;;;;;5033985;28;20032;-58
2022/05/28 05:59:45;;;;;;;7.55;1.77;;;22.80;98.90;;;;;;5035187;28;20100;-59
2022/05/28 06:02:10;;;;;;;7.35;2.03;;;23.20;96.20;;;;;;5034098;28;20112;-57
2022/05/28 06:04:36;;;;;;;6.82;1.73;;;23.30;96.10;;;;;;5033620;28;20465;-59
2022/05/28 06:07:07;;;;;;;9.05;1.90;;;23.40;95.20;;;;;;5035039;28;20022;-58
2022/05/28 06:09:33;;;;;;;;;;;23.50;95.40;;;;;;5035687;28;20028;-60
2022/05/28 06:11:58;;;;;;;12.77;1.50;;;23.70;93.60;;;;;;5035001;28;19999;-62
2022/05/28 06:14:24;;;;;;;4.05;1.55;;;24.30;94.90;;;;;;5034757;28;20017;-60
2022/05/28 06:16:50;;;;;;;7.07;1.83;;;24.60;91.90;;;;;;5034819;28;20024;-59
2022/05/28 06:19:16;;;;;;;7.65;1.80;;;25.00;90.80;;;;;;5034758;28;20060;-59
2022/05/28 06:21:42;;;;;;;5.38;1.27;;;24.90;90.80;;;;;;5034763;28;20036;-59
2022/05/28 06:24:07;;;;;;;12.40;2.08;;;25.20;90.70;;;;;;5033273;28;20120;-58
2022/05/28 06:26:33;;;;;;;9.63;1.70;;;25.80;90.90;;;;;;5034381;28;20025;-60
2022/05/28 06:28:58;;;;;;;6.50;1.65;;;26.30;87.70;;;;;;5034910;28;20057;-60
2022/05/28 06:31:24;;;;;;;8.57;1.90;;;26.30;86.90;;;;;;5034619;28;20032;-59
2022/05/28 06:33:50;;;;;;;5.20;1.50;;;26.30;84.60;;;;;;5034497;28;20053;-59
2022/05/28 06:36:15;;;;;;;5.57;1.50;;;26.50;83.60;;;;;;5033309;28;20419;-60
2022/05/28 06:38:41;;;;;;;6.38;1.60;;;26.80;85.30;;;;;;5032995;28;20022;-60
2022/05/28 06:41:07;;;;;;;6.40;1.73;;;27.00;80.80;;;;;;5033198;28;20026;-58
2022/05/28 06:43:33;;;;;;;6.43;1.77;;;27.20;81.60;;;;;;5034367;28;20033;-58
2022/05/28 06:46:04;;;;;;;4.72;1.40;;;27.20;80.00;;;;;;5034197;28;20028;-60
2022/05/28 06:48:30;;;;;;;8.77;2.10;;;27.30;78.60;;;;;;5032856;28;20104;-59
2022/05/28 06:51:01;;;;;;;7.97;2.33;;;27.50;77.80;;;;;;5034217;28;20068;-59
2022/05/28 06:53:36;;;;;;;7.95;1.73;;;27.40;80.40;;;;;;5034241;28;20022;-59
2022/05/28 06:56:02;;;;;;;7.50;1.50;;;27.60;78.50;;;;;;5034266;28;20021;-59
2022/05/28 06:58:28;;;;;;;3.90;1.33;;;27.70;76.80;;;;;;5032954;28;20061;-58
2022/05/28 07:00:54;;;;;;;2.67;1.00;;;28.20;76.00;;;;;;5032782;28;20064;-55
2022/05/28 07:03:22;;;;;;;5.28;1.10;;;28.40;74.10;;;;;;5033941;28;20124;-60
2022/05/28 07:05:49;;;;;;;9.02;1.15;;;28.00;76.40;;;;;;5032588;28;20108;-59
2022/05/28 07:08:15;;;;;;;5.95;1.45;;;27.20;77.20;;;;;;5032641;28;20028;-59
2022/05/28 07:10:53;;;;;;;6.05;2.30;;;26.60;75.40;;;;;;5034188;28;20109;-60
2022/05/28 07:13:21;;;;;;;2.85;1.27;;;26.40;73.80;;;;;;5033179;28;20025;-60
2022/05/28 07:15:47;;;;;;;4.60;1.20;;;26.70;75.00;;;;;;5032600;28;20037;-60
2022/05/28 07:18:13;;;;;;;1.70;1.00;;;27.00;76.90;;;;;;5032568;28;20022;-56
2022/05/28 07:20:39;;;;;;;5.00;1.90;;;26.90;76.30;;;;;;5032423;28;20025;-55
2022/05/28 07:23:14;;;;;;;7.20;2.30;;;26.30;72.70;;;;;;5032584;28;20032;-57
2022/05/28 07:25:40;;;;;;;3.38;1.52;;;25.70;75.90;;;;;;5033769;28;20029;-59
2022/05/28 07:28:25;;;;;;;5.50;1.52;;;26.80;77.90;;;;;;5033514;28;20248;-58
2022/05/28 07:31:18;;;;;;;5.28;2.33;;;27.70;71.80;;;;;;5032410;28;20057;-55
2022/05/28 07:33:45;;;;;;;5.00;1.70;;;28.70;70.10;;;;;;5032426;28;20021;-59
2022/05/28 07:36:20;;;;;;;5.32;1.15;;;29.20;68.50;;;;;;5032095;28;20026;-58
2022/05/28 07:38:46;;;;;;;8.02;2.33;;;28.30;66.60;;;;;;5033629;28;20026;-59
2022/05/28 07:41:15;;;;;;;3.38;1.10;;;27.20;67.90;;;;;;5033891;28;20029;-55
2022/05/28 07:43:42;;;;;;;3.17;1.05;;;26.20;69.00;;;;;;5033337;28;20029;-57
2022/05/28 07:46:28;;;;;;;5.40;1.48;;;25.50;74.30;;;;;;5033302;28;20022;-58
2022/05/28 07:48:55;;;;;;;10.13;1.42;;;24.90;74.40;;;;;;5032156;28;20476;-57
2022/05/28 07:51:21;;;;;;;12.88;1.88;;;24.60;75.50;;;;;;5031411;28;20403;-58
2022/05/28 07:53:47;;;;;;;8.10;1.63;;;24.20;75.60;;;;;;5032024;28;20029;-57
2022/05/28 07:56:13;;;;;;;3.85;1.30;;;25.00;73.90;;;;;;5033163;28;20030;-54
2022/05/28 07:58:39;;;;;;;4.18;1.13;;;25.50;72.30;;;;;;5033229;28;20040;-57
2022/05/28 08:01:06;;;;;;;3.05;1.20;;;26.00;73.90;;;;;;5033132;28;20025;-52
2022/05/28 08:03:33;;;;;;;3.50;1.30;;;26.20;71.20;;;;;;5033160;28;20032;-53
2022/05/28 08:05:59;;;;;;;1.52;0.82;;;26.50;71.30;;;;;;5031748;28;20032;-56
2022/05/28 08:08:28;;;;;;;3.83;1.17;;;26.30;71.30;;;;;;5031980;28;20093;-54
2022/05/28 08:10:54;;;;;;;4.95;1.42;;;25.50;69.40;;;;;;5033112;28;20407;-53
2022/05/28 08:13:22;;;;;;;4.57;1.48;;;25.60;69.80;;;;;;5031922;28;20078;-59
2022/05/28 08:15:50;;;;;;;2.17;0.82;;;25.80;68.70;;;;;;5031700;28;20026;-57
2022/05/28 08:18:18;;;;;;;2.78;0.80;;;26.60;73.20;;;;;;5033369;28;20053;-56
2022/05/28 08:23:29;;;;;;;2.65;1.30;;;29.20;66.60;;;;;;5033509;28;20055;-56
2022/05/28 08:25:55;;;;;;;4.20;1.42;;;30.50;62.00;;;;;;5032987;28;20034;-55
2022/05/28 08:28:22;;;;;;;2.40;0.90;;;31.10;61.90;;;;;;5032257;28;20021;-53
2022/05/28 08:30:48;;;;;;;3.20;1.00;;;31.40;61.60;;;;;;5032609;28;20025;-55
2022/05/28 08:33:16;;;;;;;4.38;1.58;;;30.70;59.40;;;;;;5033057;28;20072;-54
2022/05/28 08:35:42;;;;;;;4.03;1.10;;;30.40;59.10;;;;;;5032278;28;20053;-55
2022/05/28 08:38:11;;;;;;;2.67;0.93;;;31.00;57.20;;;;;;5033200;28;20034;-58
2022/05/28 08:40:48;;;;;;;2.53;1.27;;;31.90;56.60;;;;;;5032907;28;20025;-59
2022/05/28 08:43:16;;;;;;;8.23;1.20;;;31.40;57.40;;;;;;5031948;28;20029;-60
2022/05/28 08:45:44;;;;;;;3.65;1.48;;;30.70;57.30;;;;;;5032796;28;20021;-60
2022/05/28 08:48:14;;;;;;;4.47;0.93;;;31.00;58.50;;;;;;5032851;28;20026;-59
2022/05/28 08:50:50;;;;;;;6.10;1.40;;;31.70;55.10;;;;;;5031658;28;20089;-59
2022/05/28 08:53:20;;;;;;;5.15;1.20;;;31.10;57.40;;;;;;5031671;28;20128;-59
2022/05/28 08:55:48;;;;;;;;;;;30.40;55.10;;;;;;5031780;28;20029;-57
2022/05/28 08:58:17;;;;;;;1.20;0.77;;;30.70;55.30;;;;;;5031523;28;19909;-58
2022/05/28 09:00:48;;;;;;;2.75;0.90;;;30.50;55.60;;;;;;5032753;28;20105;-58
2022/05/28 09:03:16;;;;;;;4.07;1.30;;;30.30;57.50;;;;;;5034499;28;20025;-55
2022/05/28 09:05:56;;;;;;;4.70;1.50;;;29.50;54.50;;;;;;5035064;28;20507;-58
2022/05/28 09:08:43;;;;;;;5.10;1.17;;;28.50;56.80;;;;;;5036767;28;20021;-59
2022/05/28 09:11:14;;;;;;;2.78;0.88;;;28.60;57.00;;;;;;5036110;28;20022;-59
2022/05/28 09:13:46;;;;;;;2.22;0.82;;;28.40;58.50;;;;;;5036043;28;20028;-59
2022/05/28 09:16:30;;;;;;;3.75;1.05;;;27.70;58.80;;;;;;5035890;28;20057;-59
2022/05/28 09:19:01;;;;;;;3.78;1.10;;;28.00;59.50;;;;;;5034752;28;20063;-58
2022/05/28 09:21:26;;;;;;;;;;;29.60;57.70;;;;;;5036459;28;20021;-59
2022/05/28 09:24:01;;;;;;;4.50;1.00;;;30.50;57.20;;;;;;5034427;28;19959;-58
2022/05/28 09:26:34;;;;;;;2.67;1.00;;;29.90;55.30;;;;;;5036156;28;20018;-59
2022/05/28 09:29:30;;;;;;;3.00;0.82;;;29.70;58.90;;;;;;5035751;28;20088;-59
2022/05/28 09:32:02;;;;;;;1.60;0.77;;;30.00;54.80;;;;;;5034361;28;20037;-57
2022/05/28 09:34:46;;;;;;;2.72;1.13;;;29.40;56.50;;;;;;5034306;28;20029;-58
2022/05/28 09:37:15;;;;;;;3.20;1.08;;;28.30;56.10;;;;;;5035301;28;20040;-55
2022/05/28 09:40:11;;;;;;;4.97;1.33;;;28.80;57.90;;;;;;5034305;28;20018;-59
2022/05/28 09:43:12;;;;;;;2.60;0.77;;;29.90;55.80;;;;;;5035939;28;20029;-59
2022/05/28 09:45:52;;;;;;;1.95;0.68;;;31.30;50.90;;;;;;4992748;28;20034;-59
2022/05/28 09:48:20;;;;;;;;;;;31.80;49.80;;;;;;5034610;28;20554;-59
2022/05/28 09:50:46;;;;;;;2.53;0.95;;;30.80;51.90;;;;;;5034233;28;19944;-59
2022/05/28 09:56:15;;;;;;;1.83;0.70;;;31.40;55.00;;;;;;5035545;28;20495;-57
2022/05/28 09:58:41;;;;;;;3.75;1.10;;;32.60;53.00;;;;;;5033982;28;20037;-59
2022/05/28 10:01:11;;;;;;;1.58;0.85;;;33.40;47.90;;;;;;5035685;28;20033;-55
2022/05/28 10:06:23;;;;;;;2.47;0.90;;;34.20;48.80;;;;;;5035435;28;19920;-58
2022/05/28 10:08:49;;;;;;;1.38;0.70;;;34.90;49.90;;;;;;5034047;28;20013;-59
2022/05/28 10:11:18;;;;;;;2.42;0.70;;;34.00;47.60;;;;;;5033694;28;20021;-59
2022/05/28 10:13:56;;;;;;;1.13;0.80;;;33.50;48.30;;;;;;5034509;28;20033;-58
2022/05/28 10:16:34;;;;;;;2.13;0.88;;;32.60;49.20;;;;;;5034457;28;20441;-56
2022/05/28 10:19:00;;;;;;;4.13;0.88;;;32.70;52.90;;;;;;5034379;28;20091;-59
2022/05/28 10:21:39;;;;;;;4.15;0.88;;;32.80;49.40;;;;;;5034764;28;20104;-56
2022/05/28 10:24:16;;;;;;;2.78;0.63;;;32.60;48.60;;;;;;5034662;28;20026;-58
2022/05/28 10:26:49;;;;;;;4.18;1.92;;;32.20;48.50;;;;;;5034367;28;20044;-57
2022/05/28 10:29:38;;;;;;;2.47;1.00;;;31.40;47.50;;;;;;5033758;28;20100;-59
2022/05/28 10:32:22;;;;;;;1.75;0.70;;;30.90;48.20;;;;;;5033354;28;20029;-55
2022/05/28 10:35:00;;;;;;;1.48;1.00;;;30.00;47.40;;;;;;5034672;28;20025;-59
2022/05/28 10:37:26;;;;;;;2.85;0.90;;;29.80;49.80;;;;;;5034189;28;20103;-56
2022/05/28 10:40:05;;;;;;;2.28;0.60;;;29.50;47.10;;;;;;5033503;28;20084;-59
2022/05/28 10:42:30;;;;;;;2.58;0.98;;;29.30;51.20;;;;;;5033091;28;20025;-58
2022/05/28 10:44:56;;;;;;;6.72;0.80;;;28.80;52.00;;;;;;5034228;28;20035;-54
2022/05/28 10:47:50;;;;;;;1.70;1.00;;;28.20;51.90;;;;;;5034265;28;20026;-58
2022/05/28 10:50:20;;;;;;;3.35;0.88;;;27.40;54.90;;;;;;5033503;28;20029;-54
2022/05/28 10:53:08;;;;;;;0.93;0.60;;;26.90;55.00;;;;;;5034408;28;20029;-59
2022/05/28 10:55:48;;;;;;;6.53;1.20;;;26.90;54.40;;;;;;5034115;28;20380;-59
2022/05/28 10:58:46;;;;;;;3.17;1.10;;;26.40;54.60;;;;;;5034222;28;20035;-57
2022/05/28 11:01:44;;;;;;;3.88;0.90;;;25.80;54.70;;;;;;5031711;28;20056;-59
2022/05/28 11:04:39;;;;;;;3.25;1.52;;;25.60;57.70;;;;;;5033681;28;20026;-55
2022/05/28 11:07:16;;;;;;;3.80;1.65;;;25.50;57.90;;;;;;5032669;28;20029;-59
2022/05/28 11:10:01;;;;;;;3.28;1.00;;;25.40;56.90;;;;;;5032662;28;20022;-58
2022/05/28 11:12:43;;;;;;;3.83;0.90;;;25.30;57.30;;;;;;5033819;28;20041;-58
2022/05/28 11:15:18;;;;;;;1.73;0.82;;;25.60;58.80;;;;;;5032369;28;20021;-58
2022/05/28 11:17:58;;;;;;;3.15;0.90;;;25.60;56.50;;;;;;5033735;28;20024;-59
2022/05/28 11:20:33;;;;;;;3.28;1.10;;;25.40;57.00;;;;;;5032388;28;20032;-59
2022/05/28 11:23:28;;;;;;;1.35;0.68;;;25.20;55.90;;;;;;5033364;28;20041;-59
2022/05/28 11:26:00;;;;;;;1.63;0.88;;;25.10;55.60;;;;;;5032707;28;20014;-59
2022/05/28 11:28:54;;;;;;;3.03;1.00;;;25.00;54.50;;;;;;5032467;28;20022;-59
2022/05/28 11:31:30;;;;;;;7.70;2.40;;;25.00;56.40;;;;;;5032465;28;20112;-59
2022/05/28 11:34:00;;;;;;;4.00;1.50;;;24.60;58.50;;;;;;5032250;28;20025;-59
2022/05/28 11:36:38;;;;;;;1.90;0.70;;;24.60;57.30;;;;;;5033789;28;20033;-58
2022/05/28 11:39:10;;;;;;;2.22;0.85;;;24.60;59.60;;;;;;5032542;28;20064;-56
2022/05/28 11:41:52;;;;;;;2.13;0.80;;;24.40;55.50;;;;;;5034012;28;20026;-59
2022/05/28 11:44:39;;;;;;;2.13;0.70;;;24.00;55.10;;;;;;5032819;28;20022;-59
2022/05/28 11:47:46;;;;;;;2.60;0.68;;;23.90;57.80;;;;;;5033010;28;20032;-58
2022/05/28 11:53:36;;;;;;;3.58;1.00;;;23.80;58.90;;;;;;5033584;28;20087;-59
2022/05/28 11:56:28;;;;;;;;;;;23.80;59.60;;;;;;5032397;28;20129;-59
2022/05/28 11:59:20;;;;;;;2.47;1.05;;;23.90;63.00;;;;;;5033291;28;19992;-59
2022/05/28 12:01:53;;;;;;;1.42;0.63;;;23.80;59.20;;;;;;5026347;28;20033;-59
2022/05/28 12:04:19;;;;;;;1.58;0.73;;;23.60;57.30;;;;;;5033037;28;20026;-57
2022/05/28 12:07:04;;;;;;;4.28;1.02;;;23.50;58.40;;;;;;5032036;28;20017;-59
2022/05/28 12:09:34;;;;;;;2.38;0.88;;;23.50;57.90;;;;;;5031873;28;20022;-59
2022/05/28 12:12:20;;;;;;;3.35;1.10;;;23.50;60.30;;;;;;5033138;28;20017;-59
2022/05/28 12:14:49;;;;;;;4.03;1.02;;;23.50;60.40;;;;;;5032174;28;20033;-58
2022/05/28 12:17:17;;;;;;;3.85;0.90;;;23.30;58.30;;;;;;5033198;28;20027;-57
2022/05/28 12:19:52;;;;;;;4.25;0.90;;;23.30;58.10;;;;;;5032033;28;20078;-59
2022/05/28 12:22:26;;;;;;;5.20;1.00;;;23.10;55.20;;;;;;5033078;28;20052;-59
2022/05/28 12:24:57;;;;;;;2.08;0.85;;;23.10;60.30;;;;;;5031949;28;20093;-59
2022/05/28 12:27:24;;;;;;;5.45;1.13;;;23.30;60.00;;;;;;5032987;28;20029;-57
2022/05/28 12:30:02;;;;;;;6.93;1.20;;;23.10;57.40;;;;;;5033053;28;20022;-56
2022/05/28 12:32:47;;;;;;;2.58;0.65;;;23.30;59.50;;;;;;5031745;28;20132;-54
2022/05/28 12:35:13;;;;;;;2.42;0.80;;;23.10;56.90;;;;;;5031634;28;20083;-59
2022/05/28 12:37:50;;;;;;;6.90;0.50;;;23.20;57.30;;;;;;5033911;28;20026;-58
2022/05/28 12:40:40;;;;;;;2.95;0.52;;;23.10;56.00;;;;;;5035596;28;20022;-59
2022/05/28 12:43:31;;;;;;;4.68;0.77;;;23.10;58.10;;;;;;5035660;28;20026;-57
2022/05/28 12:46:11;;;;;;;6.05;1.60;;;23.00;58.30;;;;;;5035261;28;20026;-59
2022/05/28 12:48:38;;;;;;;4.97;1.30;;;22.90;60.70;;;;;;5036453;28;20029;-58
2022/05/28 12:51:03;;;;;;;3.22;0.88;;;22.80;60.90;;;;;;5035476;28;20029;-56
2022/05/28 12:53:35;;;;;;;3.00;0.88;;;22.80;59.40;;;;;;5035137;28;20021;-58
2022/05/28 12:56:07;;;;;;;3.42;0.90;;;22.80;59.90;;;;;;5036309;28;20053;-56
2022/05/28 12:58:36;;;;;;;3.70;1.40;;;22.80;59.70;;;;;;5035220;28;20026;-59
2022/05/28 13:01:05;;;;;;;2.88;0.60;;;22.70;59.80;;;;;;5036833;28;20021;-58
2022/05/28 13:03:41;;;;;;;2.45;0.50;;;22.70;61.20;;;;;;5034806;28;20387;-56
2022/05/28 13:06:24;;;;;;;3.40;0.70;;;22.70;59.20;;;;;;5034853;28;20033;-59
2022/05/28 13:08:59;;;;;;;3.67;0.85;;;22.60;58.30;;;;;;5035225;28;20049;-58
2022/05/28 13:11:48;;;;;;;4.90;0.70;;;22.60;60.80;;;;;;5035940;28;20026;-59
2022/05/28 13:14:19;;;;;;;2.45;0.50;;;22.80;58.60;;;;;;4998162;28;20029;-58
2022/05/28 13:16:57;;;;;;;3.13;1.20;;;22.90;59.00;;;;;;5034712;28;20033;-56
2022/05/28 13:19:50;;;;;;;5.97;1.05;;;22.80;59.80;;;;;;5034771;28;20017;-59